Time,TemperatureF,DewpointF,PressureIn,WindDirection,WindDirectionDegrees,WindSpeedMPH,WindSpeedGustMPH,Humidity,HourlyPrecipIn,Conditions,Clouds,dailyrainin,SoftwareType,DateUTC
2013-01-26 00:00:00,58.7,57.0,29.93,SW,217,0.0,0.0,94,0.00,,,0.18,Wunderground v.1.15,2013-01-26 08:00:00,
2013-01-26 00:10:00,58.6,56.9,29.93,SW,217,0.0,0.0,94,0.00,,,0.18,Wunderground v.1.15,2013-01-26 08:10:00,
2013-01-26 00:20:00,58.6,56.9,29.92,SW,217,0.0,0.0,94,0.00,,,0.00,Wunderground v.1.15,2013-01-26 08:20:00,
2013-01-26 00:30:00,58.5,56.8,29.92,SW,217,0.0,0.0,94,0.00,,,0.00,Wunderground v.1.15,2013-01-26 08:30:00,
2013-01-26 00:40:00,58.5,56.8,29.92,SW,217,0.0,0.0,94,0.00,,,0.00,Wunderground v.1.15,2013-01-26 08:40:00,
2013-01-26 00:50:00,58.5,56.8,29.93,SW,217,0.0,2.0,94,0.00,,,0.00,Wunderground v.1.15,2013-01-26 08:50:00,
2013-01-26 01:00:00,58.7,57.0,29.92,SW,217,1.0,1.0,94,0.00,,,0.00,Wunderground v.1.15,2013-01-26 09:00:00,
2013-01-26 01:09:00,58.8,57.1,29.92,SW,217,0.0,0.0,94,0.00,,,0.00,Wunderground v.1.15,2013-01-26 09:09:00,
2013-01-26 01:20:00,58.9,57.5,29.92,SW,217,0.0,0.0,95,0.00,,,0.00,Wunderground v.1.15,2013-01-26 09:20:00,
2013-01-26 01:30:00,59.0,57.6,29.91,SW,217,0.0,0.0,95,0.00,,,0.00,Wunderground v.1.15,2013-01-26 09:30:00,
2013-01-26 01:40:00,59.0,57.6,29.92,SW,217,0.0,0.0,95,0.00,,,0.00,Wunderground v.1.15,2013-01-26 09:40:00,
2013-01-26 01:50:00,59.0,57.6,29.91,SW,217,0.0,0.0,95,0.00,,,0.01,Wunderground v.1.15,2013-01-26 09:50:00,
2013-01-26 02:00:00,59.0,57.6,29.91,SW,217,0.0,0.0,95,0.00,,,0.01,Wunderground v.1.15,2013-01-26 10:00:00,
2013-01-26 02:09:00,59.0,57.6,29.91,SW,217,0.0,0.0,95,0.00,,,0.01,Wunderground v.1.15,2013-01-26 10:09:00,
2013-01-26 02:19:00,59.0,57.6,29.91,SW,217,0.0,0.0,95,0.00,,,0.01,Wunderground v.1.15,2013-01-26 10:19:00,
2013-01-26 02:30:00,59.0,57.6,29.90,SW,217,0.0,0.0,95,0.00,,,0.01,Wunderground v.1.15,2013-01-26 10:30:00,
2013-01-26 02:40:00,59.0,57.6,29.90,SW,217,0.0,0.0,95,0.00,,,0.01,Wunderground v.1.15,2013-01-26 10:40:00,
2013-01-26 02:50:00,59.0,57.6,29.90,SW,217,0.0,0.0,95,0.00,,,0.01,Wunderground v.1.15,2013-01-26 10:50:00,
2013-01-26 03:00:00,59.0,57.6,29.90,SW,217,0.0,0.0,95,0.00,,,0.02,Wunderground v.1.15,2013-01-26 11:00:00,
2013-01-26 03:09:00,59.0,57.6,29.90,SW,217,0.0,0.0,95,0.00,,,0.02,Wunderground v.1.15,2013-01-26 11:09:00,
2013-01-26 03:19:00,59.0,57.6,29.89,SW,217,0.0,0.0,95,0.00,,,0.02,Wunderground v.1.15,2013-01-26 11:19:00,
2013-01-26 03:30:00,59.1,57.7,29.89,SW,217,0.0,0.0,95,0.00,,,0.02,Wunderground v.1.15,2013-01-26 11:30:00,
2013-01-26 03:40:00,59.1,57.7,29.89,SW,217,0.0,0.0,95,0.00,,,0.02,Wunderground v.1.15,2013-01-26 11:40:00,
2013-01-26 03:50:00,59.1,57.7,29.88,SW,217,0.0,0.0,95,0.00,,,0.03,Wunderground v.1.15,2013-01-26 11:50:00,
2013-01-26 04:00:00,59.1,57.7,29.88,SW,217,0.0,0.0,95,0.00,,,0.03,Wunderground v.1.15,2013-01-26 12:00:00,
2013-01-26 04:10:00,59.0,57.6,29.88,SW,217,0.0,0.0,95,0.00,,,0.03,Wunderground v.1.15,2013-01-26 12:10:00,
2013-01-26 04:20:00,59.0,57.6,29.88,SW,217,0.0,0.0,95,0.00,,,0.03,Wunderground v.1.15,2013-01-26 12:20:00,
2013-01-26 04:30:00,59.0,57.6,29.88,SW,217,0.0,0.0,95,0.00,,,0.03,Wunderground v.1.15,2013-01-26 12:30:00,
2013-01-26 04:39:00,59.0,57.6,29.88,SW,217,0.0,0.0,95,0.00,,,0.03,Wunderground v.1.15,2013-01-26 12:39:00,
2013-01-26 04:49:00,59.0,57.6,29.88,SW,217,0.0,1.0,95,0.00,,,0.03,Wunderground v.1.15,2013-01-26 12:49:00,
2013-01-26 04:59:00,59.0,57.6,29.88,SW,217,0.0,0.0,95,0.00,,,0.03,Wunderground v.1.15,2013-01-26 12:59:00,
2013-01-26 05:10:00,59.0,57.6,29.88,SW,217,0.0,0.0,95,0.00,,,0.03,Wunderground v.1.15,2013-01-26 13:10:00,
2013-01-26 05:20:00,58.9,57.5,29.88,SW,217,0.0,0.0,95,0.00,,,0.03,Wunderground v.1.15,2013-01-26 13:20:00,
2013-01-26 05:30:00,58.9,57.5,29.88,SW,217,0.0,0.0,95,0.00,,,0.03,Wunderground v.1.15,2013-01-26 13:30:00,
2013-01-26 05:40:00,58.7,57.3,29.88,SW,217,0.0,0.0,95,0.00,,,0.03,Wunderground v.1.15,2013-01-26 13:40:00,
2013-01-26 05:50:00,58.7,57.3,29.88,SW,217,0.0,0.0,95,0.00,,,0.03,Wunderground v.1.15,2013-01-26 13:50:00,
2013-01-26 06:00:00,58.7,57.3,29.88,SW,217,0.0,0.0,95,0.00,,,0.03,Wunderground v.1.15,2013-01-26 14:00:00,
2013-01-26 06:09:00,58.6,57.2,29.88,SW,217,0.0,0.0,95,0.00,,,0.03,Wunderground v.1.15,2013-01-26 14:09:00,
2013-01-26 06:20:00,58.6,57.2,29.88,SW,217,0.0,0.0,95,0.00,,,0.03,Wunderground v.1.15,2013-01-26 14:20:00,
2013-01-26 06:30:00,58.6,57.2,29.88,SW,217,0.0,0.0,95,0.00,,,0.03,Wunderground v.1.15,2013-01-26 14:30:00,
2013-01-26 06:40:00,58.5,57.1,29.88,SW,217,0.0,0.0,95,0.00,,,0.03,Wunderground v.1.15,2013-01-26 14:40:00,
2013-01-26 06:50:00,58.5,57.1,29.89,SW,217,0.0,0.0,95,0.00,,,0.03,Wunderground v.1.15,2013-01-26 14:50:00,
2013-01-26 06:59:00,58.5,57.1,29.89,SW,217,0.0,0.0,95,0.00,,,0.03,Wunderground v.1.15,2013-01-26 14:59:00,
2013-01-26 07:10:00,58.5,57.1,29.89,SW,217,0.0,0.0,95,0.00,,,0.03,Wunderground v.1.15,2013-01-26 15:10:00,
2013-01-26 07:20:00,58.6,57.5,29.89,SW,217,0.0,0.0,96,0.00,,,0.03,Wunderground v.1.15,2013-01-26 15:20:00,
2013-01-26 07:30:00,58.7,57.6,29.89,SW,217,0.0,0.0,96,0.00,,,0.03,Wunderground v.1.15,2013-01-26 15:30:00,
2013-01-26 07:40:00,58.7,57.6,29.89,SW,217,0.0,0.0,96,0.00,,,0.03,Wunderground v.1.15,2013-01-26 15:40:00,
2013-01-26 07:50:00,58.9,57.8,29.90,SW,217,0.0,0.0,96,0.00,,,0.03,Wunderground v.1.15,2013-01-26 15:50:00,
2013-01-26 08:00:00,59.0,57.9,29.90,SW,217,0.0,2.0,96,0.00,,,0.03,Wunderground v.1.15,2013-01-26 16:00:00,
2013-01-26 08:09:00,58.8,57.4,29.90,SW,225,2.0,2.0,95,0.00,,,0.03,Wunderground v.1.15,2013-01-26 16:09:00,
2013-01-26 08:19:00,58.5,57.4,29.90,SW,230,1.0,1.0,96,0.00,,,0.03,Wunderground v.1.15,2013-01-26 16:19:00,
2013-01-26 08:30:00,58.4,57.0,29.91,SW,234,2.0,2.0,95,0.00,,,0.03,Wunderground v.1.15,2013-01-26 16:30:00,
2013-01-26 08:40:00,58.4,57.0,29.91,SW,234,1.0,4.0,95,0.00,,,0.04,Wunderground v.1.15,2013-01-26 16:40:00,
2013-01-26 08:50:00,58.4,57.3,29.91,West,261,2.0,2.0,96,0.06,,,0.05,Wunderground v.1.15,2013-01-26 16:50:00,
2013-01-26 09:00:00,58.4,57.3,29.92,West,263,2.0,2.0,96,0.11,,,0.07,Wunderground v.1.15,2013-01-26 17:00:00,
2013-01-26 09:10:00,58.4,57.3,29.92,West,263,1.0,1.0,96,0.13,,,0.09,Wunderground v.1.15,2013-01-26 17:10:00,
2013-01-26 09:20:00,58.5,57.4,29.92,West,263,0.0,0.0,96,0.09,,,0.10,Wunderground v.1.15,2013-01-26 17:20:00,
2013-01-26 09:29:00,58.7,57.6,29.92,West,263,0.0,0.0,96,0.05,,,0.11,Wunderground v.1.15,2013-01-26 17:29:00,
2013-01-26 09:39:00,58.7,57.6,29.93,West,263,0.0,0.0,96,0.04,,,0.11,Wunderground v.1.15,2013-01-26 17:39:00,
2013-01-26 09:49:00,58.7,57.6,29.92,West,263,0.0,0.0,96,0.00,,,0.11,Wunderground v.1.15,2013-01-26 17:49:00,
2013-01-26 10:00:00,59.0,57.9,29.93,West,263,0.0,0.0,96,0.00,,,0.11,Wunderground v.1.15,2013-01-26 18:00:00,
2013-01-26 10:10:00,59.4,58.3,29.92,West,263,0.0,0.0,96,0.00,,,0.11,Wunderground v.1.15,2013-01-26 18:10:00,
2013-01-26 10:20:00,60.1,59.0,29.92,West,263,0.0,0.0,96,0.00,,,0.11,Wunderground v.1.15,2013-01-26 18:20:00,
2013-01-26 10:30:00,60.7,59.6,29.92,West,263,0.0,0.0,96,0.00,,,0.11,Wunderground v.1.15,2013-01-26 18:30:00,
2013-01-26 10:39:00,61.6,60.4,29.91,West,263,0.0,1.0,96,0.00,,,0.11,Wunderground v.1.15,2013-01-26 18:39:00,
2013-01-26 10:50:00,62.8,61.6,29.91,SSW,196,1.0,1.0,96,0.00,,,0.11,Wunderground v.1.15,2013-01-26 18:50:00,
2013-01-26 11:00:00,62.3,61.1,29.91,SSW,196,1.0,1.0,96,0.00,,,0.11,Wunderground v.1.15,2013-01-26 19:00:00,
2013-01-26 11:10:00,63.5,62.3,29.91,South,187,1.0,1.0,96,0.00,,,0.11,Wunderground v.1.15,2013-01-26 19:10:00,
2013-01-26 11:20:00,63.9,62.4,29.90,South,186,0.0,0.0,95,0.00,,,0.11,Wunderground v.1.15,2013-01-26 19:20:00,
2013-01-26 11:29:00,64.9,63.1,29.90,South,186,0.0,0.0,94,0.00,,,0.11,Wunderground v.1.15,2013-01-26 19:29:00,
2013-01-26 11:40:00,65.1,62.7,29.91,South,186,1.0,1.0,92,0.00,,,0.11,Wunderground v.1.15,2013-01-26 19:40:00,
2013-01-26 11:50:00,66.3,63.3,29.90,South,186,0.0,0.0,90,0.00,,,0.11,Wunderground v.1.15,2013-01-26 19:50:00,
2013-01-26 12:00:00,65.7,62.0,29.90,WSW,255,2.0,6.0,88,0.00,,,0.11,Wunderground v.1.15,2013-01-26 20:00:00,
2013-01-26 12:10:00,64.5,60.5,29.90,WSW,251,4.0,6.0,87,0.00,,,0.11,Wunderground v.1.15,2013-01-26 20:10:00,
2013-01-26 12:20:00,63.6,59.7,29.90,WSW,257,2.0,2.0,87,0.00,,,0.11,Wunderground v.1.15,2013-01-26 20:20:00,
2013-01-26 12:30:00,63.2,59.6,29.90,WSW,248,1.0,4.0,88,0.00,,,0.11,Wunderground v.1.15,2013-01-26 20:30:00,
2013-01-26 12:40:00,62.7,59.1,29.89,WSW,242,4.0,6.0,88,0.00,,,0.11,Wunderground v.1.15,2013-01-26 20:40:00,
2013-01-26 12:49:00,62.7,59.1,29.89,WSW,247,2.0,2.0,88,0.00,,,0.11,Wunderground v.1.15,2013-01-26 20:49:00,
2013-01-26 13:00:00,62.9,59.0,29.89,West,274,2.0,2.0,87,0.00,,,0.11,Wunderground v.1.15,2013-01-26 21:00:00,
2013-01-26 13:09:00,62.3,57.7,29.89,WSW,254,6.0,6.0,85,0.00,,,0.11,Wunderground v.1.15,2013-01-26 21:09:00,
2013-01-26 13:20:00,62.5,57.9,29.89,WSW,240,5.0,5.0,85,0.00,,,0.11,Wunderground v.1.15,2013-01-26 21:20:00,
2013-01-26 13:30:00,63.3,58.4,29.89,West,260,4.0,5.0,84,0.00,,,0.11,Wunderground v.1.15,2013-01-26 21:30:00,
2013-01-26 13:40:00,64.1,58.5,29.89,West,266,5.0,5.0,82,0.00,,,0.11,Wunderground v.1.15,2013-01-26 21:40:00,
2013-01-26 13:50:00,65.0,58.3,29.89,West,263,4.0,4.0,79,0.00,,,0.11,Wunderground v.1.15,2013-01-26 21:50:00,
2013-01-26 14:00:00,65.6,58.2,29.88,WSW,249,4.0,4.0,77,0.00,,,0.11,Wunderground v.1.15,2013-01-26 22:00:00,
2013-01-26 14:10:00,66.3,58.5,29.88,WNW,300,4.0,4.0,76,0.00,,,0.11,Wunderground v.1.15,2013-01-26 22:10:00,
2013-01-26 14:20:00,67.3,58.3,29.88,West,261,2.0,2.0,73,0.00,,,0.11,Wunderground v.1.15,2013-01-26 22:20:00,
2013-01-26 14:30:00,67.9,59.3,29.88,NW,306,2.0,2.0,74,0.00,,,0.11,Wunderground v.1.15,2013-01-26 22:30:00,
2013-01-26 14:40:00,68.5,57.9,29.88,WSW,255,1.0,7.0,69,0.00,,,0.11,Wunderground v.1.15,2013-01-26 22:40:00,
2013-01-26 14:50:00,68.7,58.5,29.88,WSW,248,2.0,2.0,70,0.00,,,0.11,Wunderground v.1.15,2013-01-26 22:50:00,
2013-01-26 15:00:00,68.5,57.5,29.88,West,261,3.0,3.0,68,0.00,,,0.11,Wunderground v.1.15,2013-01-26 23:00:00,
2013-01-26 15:10:00,68.3,57.3,29.88,West,267,3.0,3.0,68,0.00,,,0.11,Wunderground v.1.15,2013-01-26 23:10:00,
2013-01-26 15:20:00,68.0,57.4,29.89,WSW,252,4.0,6.0,69,0.00,,,0.11,Wunderground v.1.15,2013-01-26 23:20:00,
2013-01-26 15:30:00,67.9,57.4,29.88,SW,223,3.0,4.0,69,0.00,,,0.11,Wunderground v.1.15,2013-01-26 23:30:00,
2013-01-26 15:40:00,67.9,56.9,29.88,SW,234,2.0,3.0,68,0.00,,,0.11,Wunderground v.1.15,2013-01-26 23:40:00,
2013-01-26 15:50:00,67.7,56.8,29.88,WNW,288,3.0,3.0,68,0.00,,,0.11,Wunderground v.1.15,2013-01-26 23:50:00,
2013-01-26 15:59:00,67.8,57.3,29.88,NW,310,2.0,2.0,69,0.00,,,0.11,Wunderground v.1.15,2013-01-26 23:59:00,
2013-01-26 16:10:00,67.4,56.9,29.88,WSW,252,1.0,5.0,69,0.00,,,0.11,Wunderground v.1.15,2013-01-27 00:10:00,
2013-01-26 16:20:00,67.0,56.5,29.89,NW,317,1.0,3.0,69,0.00,,,0.11,Wunderground v.1.15,2013-01-27 00:20:00,
2013-01-26 16:30:00,65.6,56.3,29.88,NW,319,4.0,4.0,72,0.00,,,0.11,Wunderground v.1.15,2013-01-27 00:30:00,
2013-01-26 16:40:00,64.7,56.2,29.89,NW,314,4.0,6.0,74,0.00,,,0.11,Wunderground v.1.15,2013-01-27 00:40:00,
2013-01-26 16:50:00,63.2,55.1,29.89,NW,309,5.0,5.0,75,0.00,,,0.11,Wunderground v.1.15,2013-01-27 00:50:00,
2013-01-26 17:00:00,61.1,54.9,29.89,NW,309,3.0,3.0,80,0.00,,,0.11,Wunderground v.1.15,2013-01-27 01:00:00,
2013-01-26 17:09:00,60.0,54.5,29.89,NW,319,2.0,3.0,82,0.00,,,0.11,Wunderground v.1.15,2013-01-27 01:09:00,
2013-01-26 17:20:00,59.0,53.8,29.90,NW,314,4.0,4.0,83,0.00,,,0.11,Wunderground v.1.15,2013-01-27 01:20:00,
2013-01-26 17:30:00,58.0,53.5,29.90,NW,309,4.0,4.0,85,0.00,,,0.11,Wunderground v.1.15,2013-01-27 01:30:00,
2013-01-26 17:40:00,57.4,53.6,29.91,West,281,2.0,2.0,87,0.00,,,0.11,Wunderground v.1.15,2013-01-27 01:40:00,
2013-01-26 17:50:00,57.1,53.3,29.91,West,281,0.0,0.0,87,0.00,,,0.11,Wunderground v.1.15,2013-01-27 01:50:00,
2013-01-26 18:00:00,56.8,53.3,29.92,NW,305,1.0,3.0,88,0.00,,,0.11,Wunderground v.1.15,2013-01-27 02:00:00,
2013-01-26 18:10:00,56.6,53.4,29.92,NW,307,1.0,2.0,89,0.00,,,0.11,Wunderground v.1.15,2013-01-27 02:10:00,
2013-01-26 18:20:00,56.4,53.2,29.92,NW,307,0.0,0.0,89,0.00,,,0.11,Wunderground v.1.15,2013-01-27 02:20:00,
2013-01-26 18:30:00,56.3,53.4,29.93,NW,307,0.0,0.0,90,0.00,,,0.11,Wunderground v.1.15,2013-01-27 02:30:00,
2013-01-26 18:39:00,56.2,53.3,29.93,NW,307,0.0,0.0,90,0.00,,,0.11,Wunderground v.1.15,2013-01-27 02:39:00,
2013-01-26 18:50:00,56.1,53.5,29.94,NW,307,0.0,0.0,91,0.00,,,0.11,Wunderground v.1.15,2013-01-27 02:50:00,
2013-01-26 19:00:00,56.1,53.5,29.94,NW,307,0.0,0.0,91,0.00,,,0.11,Wunderground v.1.15,2013-01-27 03:00:00,
2013-01-26 19:10:00,56.2,53.6,29.94,NW,307,0.0,0.0,91,0.00,,,0.11,Wunderground v.1.15,2013-01-27 03:10:00,
2013-01-26 19:20:00,56.3,54.0,29.94,NW,307,0.0,0.0,92,0.00,,,0.11,Wunderground v.1.15,2013-01-27 03:20:00,
2013-01-26 19:30:00,56.4,54.1,29.94,WNW,303,1.0,1.0,92,0.00,,,0.11,Wunderground v.1.15,2013-01-27 03:30:00,
2013-01-26 19:40:00,56.4,54.1,29.95,NW,304,0.0,0.0,92,0.00,,,0.11,Wunderground v.1.15,2013-01-27 03:40:00,
2013-01-26 19:50:00,56.5,54.2,29.95,WNW,303,0.0,0.0,92,0.00,,,0.11,Wunderground v.1.15,2013-01-27 03:50:00,
2013-01-26 20:00:00,56.6,54.3,29.95,NW,304,0.0,0.0,92,0.00,,,0.11,Wunderground v.1.15,2013-01-27 04:00:00,
2013-01-26 20:10:00,56.8,54.5,29.96,NW,304,0.0,0.0,92,0.00,,,0.11,Wunderground v.1.15,2013-01-27 04:10:00,
2013-01-26 20:19:00,56.9,54.6,29.95,NW,304,0.0,0.0,92,0.00,,,0.11,Wunderground v.1.15,2013-01-27 04:19:00,
2013-01-26 20:29:00,56.9,54.6,29.95,NW,304,1.0,2.0,92,0.00,,,0.11,Wunderground v.1.15,2013-01-27 04:29:00,
2013-01-26 20:39:00,56.9,54.6,29.96,NW,304,1.0,1.0,92,0.00,,,0.11,Wunderground v.1.15,2013-01-27 04:39:00,
2013-01-26 20:50:00,56.8,54.8,29.96,NW,304,0.0,0.0,93,0.00,,,0.11,Wunderground v.1.15,2013-01-27 04:50:00,
2013-01-26 21:10:00,56.9,54.9,29.96,NW,304,0.0,2.0,93,0.00,,,0.11,Wunderground v.1.15,2013-01-27 05:10:00,
2013-01-26 21:20:00,56.9,54.9,29.96,NW,304,1.0,1.0,93,0.00,,,0.11,Wunderground v.1.15,2013-01-27 05:20:00,
2013-01-26 21:30:00,56.9,54.9,29.97,NW,304,1.0,1.0,93,0.00,,,0.11,Wunderground v.1.15,2013-01-27 05:30:00,
2013-01-26 21:40:00,56.8,54.8,29.97,WSW,238,1.0,2.0,93,0.00,,,0.11,Wunderground v.1.15,2013-01-27 05:40:00,
2013-01-26 21:50:00,56.7,54.7,29.97,SSW,209,1.0,2.0,93,0.00,,,0.11,Wunderground v.1.15,2013-01-27 05:50:00,
2013-01-26 22:00:00,56.6,54.6,29.97,SSW,209,1.0,1.0,93,0.00,,,0.11,Wunderground v.1.15,2013-01-27 06:00:00,
2013-01-26 22:10:00,56.6,54.6,29.98,SSW,209,1.0,1.0,93,0.00,,,0.11,Wunderground v.1.15,2013-01-27 06:10:00,
2013-01-26 22:19:00,56.6,54.6,29.98,SSW,208,1.0,1.0,93,0.00,,,0.11,Wunderground v.1.15,2013-01-27 06:19:00,
2013-01-26 22:30:00,56.6,54.6,29.98,SSW,208,1.0,1.0,93,0.00,,,0.11,Wunderground v.1.15,2013-01-27 06:30:00,
2013-01-26 22:40:00,56.6,54.6,29.98,SSW,209,2.0,2.0,93,0.00,,,0.11,Wunderground v.1.15,2013-01-27 06:40:00,
2013-01-26 22:50:00,56.5,54.5,29.98,SW,234,2.0,2.0,93,0.00,,,0.11,Wunderground v.1.15,2013-01-27 06:50:00,
2013-01-26 23:00:00,56.4,54.4,29.98,SW,236,2.0,2.0,93,0.00,,,0.11,Wunderground v.1.15,2013-01-27 07:00:00,
2013-01-26 23:20:00,56.5,54.5,29.98,SW,236,0.0,1.0,93,0.00,,,0.11,Wunderground v.1.15,2013-01-27 07:20:00,
2013-01-26 23:30:00,56.6,54.6,29.98,SW,236,0.0,0.0,93,0.00,,,0.11,Wunderground v.1.15,2013-01-27 07:30:00,
2013-01-26 23:39:00,56.6,54.6,29.98,SW,236,0.0,0.0,93,0.00,,,0.11,Wunderground v.1.15,2013-01-27 07:39:00,
2013-01-26 23:50:00,56.6,54.6,29.98,SW,236,0.0,0.0,93,0.00,,,0.11,Wunderground v.1.15,2013-01-27 07:50:00,